createdAt,value
2023-04-29T00:08:40.285Z,6.15
2023-04-29T00:18:40.273Z,2.99
2023-04-29T00:28:40.304Z,4.50
2023-04-29T00:38:40.351Z,9.61
2023-04-29T00:48:41.035Z,20.84
2023-04-29T00:58:41.294Z,14.19
2023-04-29T01:08:41.454Z,25.50
2023-04-29T01:18:42.202Z,22.20
2023-04-29T01:28:42.550Z,22.14
2023-04-29T01:38:43.137Z,31.56
2023-04-29T01:48:43.630Z,32.46
2023-04-29T01:58:48.698Z,19.88
2023-04-29T02:08:50.596Z,47.13
2023-04-29T02:18:50.918Z,25.86
2023-04-29T02:28:51.992Z,23.59
2023-04-29T02:38:54.356Z,40.19
2023-04-29T02:48:54.516Z,29.88
2023-04-29T02:58:54.540Z,30.24
2023-04-29T03:08:54.717Z,39.07
2023-04-29T03:18:54.761Z,26.15
2023-04-29T03:28:54.747Z,16.16
2023-04-29T03:38:55.102Z,30.85
2023-04-29T03:48:56.491Z,32.74
2023-04-29T03:58:57.478Z,24.22
2023-04-29T04:08:59.773Z,15.30
2023-04-29T04:18:59.840Z,29.01
2023-04-29T04:29:01.456Z,26.90
2023-04-29T04:39:01.788Z,23.25
2023-04-29T04:49:02.202Z,23.99
2023-04-29T04:59:03.261Z,23.21
2023-04-29T05:09:05.196Z,23.77
2023-04-29T05:19:07.683Z,28.76
2023-04-29T05:29:09.569Z,15.22
2023-04-29T05:39:10.356Z,14.04
2023-04-29T05:49:10.773Z,15.29
2023-04-29T05:59:14.136Z,10.87
2023-04-29T06:09:26.434Z,15.24
2023-04-29T06:19:18.964Z,17.96
2023-04-29T06:29:18.962Z,31.18
2023-04-29T06:39:26.678Z,14.54
2023-04-29T06:49:26.958Z,14.21
2023-04-29T06:59:26.773Z,18.06
2023-04-29T07:09:27.312Z,16.52
2023-04-29T07:19:27.973Z,15.38
2023-04-29T07:29:28.067Z,32.57
2023-04-29T07:39:30.112Z,19.66
2023-04-29T07:49:30.140Z,16.68
2023-04-29T07:59:30.498Z,12.50
2023-04-29T08:09:31.242Z,16.24
2023-04-29T08:19:31.884Z,11.03
2023-04-29T08:29:32.784Z,9.52
2023-04-29T08:39:35.899Z,24.24
2023-04-29T08:49:37.580Z,16.60
2023-04-29T08:59:37.977Z,13.12
2023-04-29T09:09:37.920Z,12.83
2023-04-29T09:19:37.977Z,18.35
2023-04-29T09:29:38.854Z,17.67
2023-04-29T09:39:38.964Z,23.40
2023-04-29T09:49:40.776Z,31.47
2023-04-29T09:59:41.063Z,21.49
2023-04-29T10:09:41.039Z,25.02
2023-04-29T10:19:41.034Z,16.87
2023-04-29T10:29:41.518Z,12.33
2023-04-29T10:39:42.062Z,9.72
2023-04-29T10:49:42.035Z,23.09
2023-04-29T10:59:42.130Z,9.66
2023-04-29T11:09:42.064Z,18.83
2023-04-29T11:19:42.186Z,22.94
2023-04-29T11:29:42.072Z,29.54
2023-04-29T11:39:42.119Z,21.08
2023-04-29T11:49:42.504Z,12.72
2023-04-29T11:59:42.458Z,21.41
2023-04-29T12:09:42.530Z,19.62
2023-04-29T12:19:43.564Z,10.43
2023-04-29T12:29:44.241Z,16.56
2023-04-29T12:39:47.233Z,7.42
2023-04-29T12:49:47.629Z,8.79
2023-04-29T12:59:51.309Z,15.76
2023-04-29T13:09:51.358Z,12.75
2023-04-29T13:19:52.399Z,16.30
2023-04-29T13:29:52.361Z,12.18
2023-04-29T13:39:57.243Z,9.75
2023-04-29T13:50:22.582Z,11.01
2023-04-29T13:59:57.219Z,11.02
2023-04-29T14:09:57.634Z,18.71
2023-04-29T14:19:57.669Z,11.66
2023-04-29T14:29:57.402Z,8.76
2023-04-29T14:39:57.433Z,7.20
2023-04-29T14:49:57.418Z,9.61
2023-04-29T14:59:57.510Z,7.66
2023-04-29T15:09:57.530Z,5.83
2023-04-29T15:19:57.524Z,5.35
2023-04-29T15:29:57.591Z,7.88
2023-04-29T15:39:57.887Z,10.79
2023-04-29T15:49:58.539Z,3.69
2023-04-29T15:59:58.690Z,3.99
2023-04-29T16:09:58.511Z,6.31
2023-04-29T16:19:58.644Z,3.20
2023-04-29T16:29:59.146Z,3.20
2023-04-29T16:40:00.008Z,3.88
2023-04-29T16:50:00.621Z,5.72
2023-04-29T17:00:00.629Z,12.19
2023-04-29T17:10:00.638Z,3.78
2023-04-29T17:20:00.648Z,3.48
2023-04-29T17:30:01.125Z,3.87
2023-04-29T17:40:01.681Z,4.15
2023-04-29T17:50:02.700Z,4.53
2023-04-29T18:00:05.046Z,2.98
2023-04-29T18:10:05.580Z,4.70
2023-04-29T18:20:06.152Z,12.62
2023-04-29T18:30:07.155Z,19.86
2023-04-29T18:40:07.727Z,5.05
2023-04-29T18:50:08.413Z,2.85
2023-04-29T19:00:08.791Z,5.97
2023-04-29T19:10:09.022Z,26.76
2023-04-29T19:20:09.639Z,3.30
2023-04-29T19:30:10.248Z,6.11
2023-04-29T19:40:10.821Z,7.50
2023-04-29T19:50:10.909Z,13.45
2023-04-29T20:00:13.102Z,6.98
2023-04-29T20:10:12.857Z,14.46
2023-04-29T20:20:12.850Z,5.72
2023-04-29T20:30:13.563Z,19.94
2023-04-29T20:40:14.034Z,7.86
2023-04-29T20:50:13.962Z,17.03
2023-04-29T21:00:14.627Z,22.40
2023-04-29T21:10:15.076Z,7.31
2023-04-29T21:20:16.577Z,10.08
2023-04-29T21:30:16.929Z,9.94
2023-04-29T21:40:18.366Z,15.07
2023-04-29T21:50:19.018Z,8.70
2023-04-29T22:00:21.754Z,14.87
2023-04-29T22:10:22.063Z,13.74
2023-04-29T22:20:25.087Z,7.63
2023-04-29T22:30:25.013Z,5.69
2023-04-29T22:40:25.108Z,4.29
2023-04-29T22:50:25.077Z,7.08
2023-04-29T23:00:25.664Z,4.63
2023-04-29T23:10:26.232Z,3.93
2023-04-29T23:20:26.101Z,6.36
2023-04-29T23:30:26.316Z,6.09
2023-04-29T23:40:26.229Z,12.17
2023-04-29T23:50:26.146Z,2.95
